Time;durP1;ratioP1;P1;durP2;ratioP2;P2;SDS_P1;SDS_P2;PMS_P1;PMS_P2;Temp;Humidity;BMP_temperature;BMP_pressure;BME280_temperature;BME280_humidity;BME280_pressure;Samples;Min_cycle;Max_cycle;Signal;HPM_P1;HPM_P2
2021/03/16 00:00:17;;;;;;;87.43;63.67;;;;;;;2.14;69.50;99712.79;122598;1105;104226;-82
2021/03/16 00:02:44;;;;;;;88.27;63.97;;;;;;;2.19;69.69;99697.03;122824;1105;104347;-82
2021/03/16 00:05:11;;;;;;;90.62;63.98;;;;;;;2.15;69.67;99696.16;122726;1105;104226;-81
2021/03/16 00:07:52;;;;;;;90.12;62.27;;;;;;;2.13;70.11;99704.92;122678;1105;104328;-83
2021/03/16 00:10:19;;;;;;;84.30;62.50;;;;;;;2.13;70.41;99704.92;122735;1105;104793;-80
2021/03/16 00:12:45;;;;;;;90.17;61.17;;;;;;;2.21;70.50;99702.27;122558;1104;104660;-80
2021/03/16 00:15:12;;;;;;;86.10;59.93;;;;;;;2.25;69.86;99701.38;122551;1105;104373;-81
2021/03/16 00:17:39;;;;;;;78.40;61.87;;;;;;;2.21;70.32;99700.51;122911;1105;105136;-81
2021/03/16 00:20:07;;;;;;;91.37;64.00;;;;;;;2.11;71.14;99696.19;123276;1105;104220;-84
2021/03/16 00:22:34;;;;;;;76.43;57.10;;;;;;;1.98;70.97;99692.72;123206;1105;104824;-83
2021/03/16 00:25:14;;;;;;;85.47;59.50;;;;;;;1.91;71.65;99702.36;123101;1105;104316;-80
2021/03/16 00:27:40;;;;;;;87.00;62.53;;;;;;;1.90;71.50;99695.36;123211;1105;104677;-81
2021/03/16 00:30:08;;;;;;;96.40;64.77;;;;;;;1.94;71.71;99694.47;123330;1105;104181;-81
2021/03/16 00:32:34;;;;;;;91.93;65.10;;;;;;;2.02;70.48;99697.08;123278;1104;104421;-80
2021/03/16 00:35:01;;;;;;;89.90;64.07;;;;;;;2.08;71.22;99697.07;123258;1106;104334;-81
2021/03/16 00:37:27;;;;;;;92.60;60.23;;;;;;;2.16;71.41;99699.68;123298;1105;104325;-81
2021/03/16 00:39:54;;;;;;;83.93;60.37;;;;;;;2.23;71.63;99700.53;123497;1106;104156;-82
2021/03/16 00:42:21;;;;;;;98.67;65.87;;;;;;;2.29;70.31;99704.01;123524;1105;104329;-81
2021/03/16 00:44:47;;;;;;;102.05;66.45;;;;;;;2.37;71.06;99713.60;123602;1105;104329;-82
2021/03/16 00:47:14;;;;;;;89.10;62.15;;;;;;;2.24;71.35;99710.13;123687;1105;104242;-81
2021/03/16 00:49:41;;;;;;;102.07;63.70;;;;;;;2.21;71.39;99721.52;123584;1105;104335;-80
2021/03/16 00:52:07;;;;;;;92.05;66.15;;;;;;;2.29;71.23;99719.77;123502;1105;104379;-81
2021/03/16 00:54:33;;;;;;;106.77;67.63;;;;;;;2.35;72.74;99724.13;123390;1105;105123;-83
2021/03/16 00:57:00;;;;;;;87.40;66.05;;;;;;;2.28;72.23;99730.26;123494;1105;104226;-81
2021/03/16 00:59:26;;;;;;;78.83;54.88;;;;;;;2.27;72.69;99724.14;123518;1105;104415;-82
2021/03/16 01:01:52;;;;;;;85.33;57.97;;;;;;;2.24;72.95;99723.27;123485;1105;105063;-81
2021/03/16 01:04:19;;;;;;;83.10;57.03;;;;;;;2.31;73.62;99728.50;123469;1105;104348;-82
2021/03/16 01:06:47;;;;;;;87.07;58.03;;;;;;;2.34;73.35;99720.60;123599;1105;104252;-81
2021/03/16 01:09:18;;;;;;;79.27;60.17;;;;;;;2.33;72.61;99720.61;123199;1105;104175;-82
2021/03/16 01:11:44;;;;;;;81.08;55.65;;;;;;;2.37;72.01;99717.09;123128;1105;104341;-80
2021/03/16 01:14:11;;;;;;;80.07;57.90;;;;;;;2.43;72.53;99716.22;123262;1106;104373;-79
2021/03/16 01:16:38;;;;;;;74.95;55.65;;;;;;;2.40;72.72;99713.58;123229;1105;104332;-80
2021/03/16 01:19:05;;;;;;;86.78;57.75;;;;;;;2.45;71.74;99707.45;123222;1105;104725;-80
2021/03/16 01:21:31;;;;;;;77.17;57.00;;;;;;;2.49;72.01;99713.53;123143;1105;105008;-81
2021/03/16 01:23:57;;;;;;;81.03;55.83;;;;;;;2.48;71.51;99712.68;123222;1105;105009;-82
2021/03/16 01:26:24;;;;;;;73.40;58.00;;;;;;;2.54;71.43;99713.53;123305;1105;105117;-81
2021/03/16 01:28:50;;;;;;;80.17;54.23;;;;;;;2.56;70.79;99712.65;123327;1105;104906;-82
2021/03/16 01:31:16;;;;;;;76.43;57.83;;;;;;;2.53;71.01;99715.27;123191;1105;104277;-80
2021/03/16 01:33:44;;;;;;;76.07;57.43;;;;;;;2.51;70.91;99715.28;123124;1105;105095;-80
2021/03/16 01:36:10;;;;;;;77.72;52.88;;;;;;;2.45;70.85;99712.70;123063;1105;104383;-83
2021/03/16 01:38:38;;;;;;;77.82;54.80;;;;;;;2.51;70.06;99717.91;123117;1105;104290;-81
2021/03/16 01:41:19;;;;;;;84.73;60.93;;;;;;;2.46;71.17;99716.19;122619;1106;104379;-81
2021/03/16 01:43:45;;;;;;;80.65;57.20;;;;;;;2.34;71.40;99717.97;122755;1105;104323;-81
2021/03/16 01:46:26;;;;;;;71.07;55.40;;;;;;;2.21;71.51;99715.41;122811;1105;104466;-80
2021/03/16 01:48:53;;;;;;;73.27;55.80;;;;;;;2.23;71.57;99725.03;122822;1105;104392;-80
2021/03/16 01:51:20;;;;;;;80.93;57.80;;;;;;;2.28;71.74;99727.63;122774;1105;104328;-80
2021/03/16 01:53:47;;;;;;;76.17;55.17;;;;;;;2.33;70.52;99720.61;122711;1106;105280;-82
2021/03/16 01:56:28;;;;;;;78.47;56.98;;;;;;;2.37;71.59;99719.72;122756;1105;104347;-81
2021/03/16 01:58:56;;;;;;;77.65;59.10;;;;;;;2.37;70.26;99717.09;122729;1105;104342;-80
2021/03/16 02:01:23;;;;;;;84.77;57.35;;;;;;;2.29;71.05;99717.14;122909;1105;104316;-86
2021/03/16 02:04:04;;;;;;;80.77;57.88;;;;;;;2.36;70.83;99718.00;123188;1105;105437;-79
2021/03/16 02:06:49;;;;;;;83.42;57.75;;;;;;;2.37;70.38;99717.09;123645;1105;104286;-79
2021/03/16 02:09:44;;;;;;;82.97;59.80;;;;;;;2.39;70.46;99712.72;123599;1105;104267;-80
2021/03/16 02:12:29;;;;;;;77.55;58.90;;;;;;;2.42;70.81;99720.58;123566;1105;104961;-87
2021/03/16 02:15:22;;;;;;;76.23;54.07;;;;;;;2.42;71.09;99717.95;123598;1104;104641;-79
2021/03/16 02:17:57;;;;;;;77.83;60.63;;;;;;;2.39;70.46;99719.73;123697;1105;104421;-80
2021/03/16 02:21:02;;;;;;;73.13;59.17;;;;;;;2.32;69.92;99724.14;123039;1109;104931;-80
2021/03/16 02:23:53;;;;;;;81.12;57.55;;;;;;;2.26;70.84;99724.16;123167;1109;104440;-82
2021/03/16 02:26:38;;;;;;;82.37;58.30;;;;;;;2.24;70.95;99724.16;123203;1105;104705;-80
2021/03/16 02:29:09;;;;;;;83.85;57.88;;;;;;;2.20;70.95;99722.43;123321;1105;104233;-80
2021/03/16 02:31:42;;;;;;;86.12;61.98;;;;;;;2.16;70.27;99728.58;123397;1105;104307;-79
2021/03/16 02:34:09;;;;;;;87.08;57.35;;;;;;;2.21;70.64;99729.41;123349;1105;104964;-81
2021/03/16 02:36:36;;;;;;;89.37;61.37;;;;;;;2.27;70.76;99731.16;123271;1105;104223;-80
2021/03/16 02:39:05;;;;;;;78.87;56.07;;;;;;;2.18;71.10;99727.66;123302;1105;104297;-80
2021/03/16 02:41:33;;;;;;;78.50;56.97;;;;;;;2.14;70.24;99725.06;123385;1105;104226;-80
2021/03/16 02:44:00;;;;;;;74.90;57.55;;;;;;;2.12;70.81;99727.70;123322;1105;104277;-81
2021/03/16 02:46:28;;;;;;;79.65;55.90;;;;;;;2.12;70.52;99726.80;123425;1105;104415;-81
2021/03/16 02:48:56;;;;;;;77.62;58.38;;;;;;;2.15;70.80;99739.95;123397;1105;104270;-82
2021/03/16 02:51:24;;;;;;;76.22;57.23;;;;;;;2.21;70.00;99733.80;123137;1109;104428;-80
2021/03/16 02:53:55;;;;;;;74.37;57.35;;;;;;;2.26;70.54;99742.55;122975;1105;104337;-81
2021/03/16 02:56:22;;;;;;;75.13;56.73;;;;;;;2.25;69.80;99739.02;122940;1106;104861;-80
2021/03/16 02:58:49;;;;;;;78.53;62.73;;;;;;;2.25;70.59;99746.05;123064;1106;104415;-80
2021/03/16 03:01:17;;;;;;;72.97;53.97;;;;;;;2.17;70.38;99738.17;123121;1108;104731;-82
2021/03/16 03:03:45;;;;;;;77.67;53.90;;;;;;;2.07;71.01;99744.36;122990;1109;104463;-80
2021/03/16 03:06:14;;;;;;;76.30;53.30;;;;;;;1.97;71.67;99749.63;123011;1106;104443;-79
2021/03/16 03:08:42;;;;;;;75.87;57.37;;;;;;;1.99;71.00;99747.85;122944;1109;104441;-83
2021/03/16 03:11:10;;;;;;;69.30;53.80;;;;;;;2.06;71.01;99746.09;122962;1109;104443;-81
2021/03/16 03:13:38;;;;;;;79.87;56.27;;;;;;;2.06;70.35;99743.47;122824;1105;104339;-81
2021/03/16 03:16:19;;;;;;;75.62;54.08;;;;;;;2.04;70.69;99742.61;122802;1109;104779;-87
2021/03/16 03:18:46;;;;;;;68.10;50.50;;;;;;;2.10;70.43;99744.34;123035;1108;104455;-80
2021/03/16 03:21:57;;;;;;;71.10;52.57;;;;;;;2.13;70.74;99739.96;122966;1109;104418;-82
2021/03/16 03:24:51;;;;;;;63.10;49.47;;;;;;;2.10;70.26;99744.34;122914;1109;104406;-83
2021/03/16 03:27:40;;;;;;;61.10;47.60;;;;;;;1.93;70.45;99747.89;122797;1109;104341;-81
2021/03/16 03:30:08;;;;;;;63.73;46.92;;;;;;;1.89;70.72;99746.11;122999;1108;104389;-82
2021/03/16 03:32:37;;;;;;;65.67;48.73;;;;;;;1.96;70.93;99741.72;122807;1109;105060;-81
2021/03/16 03:35:05;;;;;;;65.97;49.80;;;;;;;2.00;70.50;99740.88;122854;1109;104396;-80
2021/03/16 03:37:33;;;;;;;65.50;47.35;;;;;;;2.00;70.81;99741.73;123182;1109;104382;-80
2021/03/16 03:40:01;;;;;;;74.83;47.70;;;;;;;1.98;70.37;99743.47;122997;1109;104572;-81
2021/03/16 03:42:28;;;;;;;67.03;48.70;;;;;;;1.99;70.13;99742.60;122918;1108;105005;-83
2021/03/16 03:44:57;;;;;;;61.60;47.35;;;;;;;1.99;70.22;99746.99;122912;1109;105047;-81
2021/03/16 03:47:24;;;;;;;78.10;54.33;;;;;;;1.95;70.83;99753.12;122966;1107;104310;-81
2021/03/16 03:49:51;;;;;;;75.60;52.90;;;;;;;1.86;71.43;99738.25;122913;1109;104700;-80
2021/03/16 03:52:18;;;;;;;69.00;49.10;;;;;;;1.79;71.19;99747.03;123006;1109;104684;-83
2021/03/16 03:54:50;;;;;;;71.75;50.28;;;;;;;1.84;71.61;99756.64;123181;1106;104306;-81
2021/03/16 03:57:17;;;;;;;71.82;48.13;;;;;;;1.78;70.84;99747.89;123499;1105;104424;-82
2021/03/16 03:59:45;;;;;;;69.70;48.47;;;;;;;1.73;71.13;99754.90;123286;1106;105167;-80
2021/03/16 04:02:12;;;;;;;68.25;49.15;;;;;;;1.69;71.76;99761.02;123328;1105;104306;-79
2021/03/16 04:04:39;;;;;;;68.30;49.33;;;;;;;1.66;70.80;99760.14;123415;1105;104223;-80
2021/03/16 04:07:07;;;;;;;66.37;48.23;;;;;;;1.71;71.12;99769.79;123143;1105;104358;-80
2021/03/16 04:09:34;;;;;;;66.10;48.78;;;;;;;1.72;70.97;99771.52;123293;1104;104612;-81
2021/03/16 04:12:02;;;;;;;68.52;53.10;;;;;;;1.72;70.64;99774.14;123304;1105;104149;-81
2021/03/16 04:14:29;;;;;;;69.33;49.17;;;;;;;1.73;70.92;99776.76;123217;1105;104434;-81
2021/03/16 04:16:57;;;;;;;72.97;46.73;;;;;;;1.79;70.66;99776.77;123213;1106;104299;-81
2021/03/16 04:19:24;;;;;;;60.78;49.53;;;;;;;1.78;71.06;99771.52;123256;1105;104332;-80
2021/03/16 04:21:50;;;;;;;68.02;50.38;;;;;;;1.79;71.06;99771.52;123223;1105;104485;-80
2021/03/16 04:24:17;;;;;;;67.97;49.53;;;;;;;1.76;70.34;99768.91;123351;1105;104373;-80
2021/03/16 04:26:43;;;;;;;63.52;46.10;;;;;;;1.83;70.80;99772.40;123440;1105;104224;-80
2021/03/16 04:29:09;;;;;;;61.60;47.07;;;;;;;1.81;70.71;99775.03;123404;1105;104376;-80
2021/03/16 04:31:36;;;;;;;64.23;45.73;;;;;;;1.79;71.15;99774.14;123388;1105;104268;-82
2021/03/16 04:34:03;;;;;;;62.35;47.05;;;;;;;1.80;71.17;99778.52;123405;1105;104345;-80
2021/03/16 04:36:44;;;;;;;60.87;45.33;;;;;;;1.80;70.42;99772.37;123124;1109;104508;-81
2021/03/16 04:39:25;;;;;;;64.27;45.77;;;;;;;1.84;70.65;99782.03;123284;1105;104249;-81
2021/03/16 04:41:52;;;;;;;66.85;46.50;;;;;;;1.86;71.86;99782.89;123256;1106;104403;-81
2021/03/16 04:44:18;;;;;;;65.47;46.63;;;;;;;1.82;71.59;99782.00;123312;1105;104287;-81
2021/03/16 04:46:45;;;;;;;62.85;45.65;;;;;;;1.81;71.50;99780.28;123357;1105;104446;-80
2021/03/16 04:49:11;;;;;;;63.80;46.90;;;;;;;1.81;71.92;99782.01;123269;1105;104289;-81
2021/03/16 04:51:38;;;;;;;59.73;44.93;;;;;;;1.70;70.95;99787.27;123347;1106;104252;-81
2021/03/16 04:54:05;;;;;;;63.58;48.08;;;;;;;1.61;71.68;99788.16;123255;1105;104428;-80
2021/03/16 04:56:31;;;;;;;60.35;48.25;;;;;;;1.63;71.08;99796.89;123278;1105;104785;-80
2021/03/16 04:58:58;;;;;;;60.52;44.85;;;;;;;1.65;71.43;99789.02;123282;1106;104454;-79
2021/03/16 05:01:25;;;;;;;71.73;44.67;;;;;;;1.69;70.90;99795.15;123227;1105;104303;-79
2021/03/16 05:04:06;;;;;;;74.35;49.58;;;;;;;1.67;71.22;99800.41;123326;1105;105008;-79
2021/03/16 05:06:48;;;;;;;60.73;46.70;;;;;;;1.66;70.95;99804.76;123029;1106;104790;-81
2021/03/16 05:09:29;;;;;;;61.42;47.48;;;;;;;1.66;71.38;99806.52;122745;1108;104395;-79
2021/03/16 05:11:56;;;;;;;58.58;47.48;;;;;;;1.72;71.26;99803.91;122817;1112;104909;-80
2021/03/16 05:14:22;;;;;;;71.90;49.93;;;;;;;1.75;70.42;99808.28;122606;1109;104791;-81
2021/03/16 05:16:49;;;;;;;71.33;51.30;;;;;;;1.80;70.67;99811.76;122751;1109;104338;-81
2021/03/16 05:19:16;;;;;;;72.07;51.53;;;;;;;1.76;71.00;99804.76;122713;1109;104515;-79
2021/03/16 05:21:43;;;;;;;58.93;45.43;;;;;;;1.67;71.23;99811.77;122830;1112;105150;-79
2021/03/16 05:24:09;;;;;;;64.00;46.40;;;;;;;1.68;71.47;99810.03;122807;1112;104495;-79
2021/03/16 05:26:36;;;;;;;70.20;49.85;;;;;;;1.60;71.08;99811.75;122717;1109;104352;-80
2021/03/16 05:29:03;;;;;;;68.13;49.90;;;;;;;1.55;72.06;99808.28;122722;1109;104325;-81
2021/03/16 05:31:30;;;;;;;69.43;48.27;;;;;;;1.48;71.69;99810.89;122571;1109;104376;-79
2021/03/16 05:33:57;;;;;;;68.20;48.75;;;;;;;1.58;72.56;99806.51;122584;1109;105002;-80
2021/03/16 05:36:24;;;;;;;70.00;49.93;;;;;;;1.70;72.10;99800.39;122677;1109;104418;-80
2021/03/16 05:38:50;;;;;;;61.80;46.58;;;;;;;1.81;71.50;99797.77;122611;1109;104399;-79
2021/03/16 05:41:16;;;;;;;72.82;52.10;;;;;;;1.90;71.51;99803.01;122575;1112;104389;-80
2021/03/16 05:43:47;;;;;;;69.47;52.73;;;;;;;1.98;70.44;99806.50;122560;1109;104433;-80
2021/03/16 05:46:14;;;;;;;65.93;49.00;;;;;;;1.94;70.84;99806.52;122919;1109;107492;-79
2021/03/16 05:48:41;;;;;;;68.60;51.00;;;;;;;1.95;70.72;99813.53;123408;1105;104390;-80
2021/03/16 05:51:08;;;;;;;67.95;50.83;;;;;;;1.97;70.91;99814.38;123115;1105;104343;-81
2021/03/16 05:53:36;;;;;;;72.05;52.35;;;;;;;2.05;70.45;99824.89;123191;1105;104232;-80
2021/03/16 05:56:02;;;;;;;70.83;50.57;;;;;;;2.04;70.82;99829.28;123290;1105;104345;-79
2021/03/16 05:58:30;;;;;;;68.25;49.50;;;;;;;2.12;70.95;99829.25;123300;1105;104705;-82
2021/03/16 06:00:56;;;;;;;75.97;52.53;;;;;;;2.19;71.75;99825.75;123263;1105;104249;-80
2021/03/16 06:03:23;;;;;;;66.40;52.83;;;;;;;2.28;71.20;99836.25;123226;1105;104258;-81
2021/03/16 06:05:50;;;;;;;79.40;57.40;;;;;;;2.41;70.99;99837.08;123112;1105;104705;-82
2021/03/16 06:08:16;;;;;;;72.12;49.98;;;;;;;2.40;71.94;99842.34;123087;1106;104683;-79
2021/03/16 06:10:44;;;;;;;76.17;53.60;;;;;;;2.48;72.34;99840.59;123018;1105;104435;-80
2021/03/16 06:13:26;;;;;;;77.42;54.33;;;;;;;2.55;72.78;99839.69;123010;1105;104249;-80
2021/03/16 06:15:53;;;;;;;77.37;53.85;;;;;;;2.73;72.40;99840.52;123214;1105;104303;-80
2021/03/16 06:18:27;;;;;;;79.37;56.37;;;;;;;2.88;73.01;99850.09;123127;1105;104399;-79
2021/03/16 06:21:02;;;;;;;88.40;56.28;;;;;;;3.07;72.38;99840.39;123184;1105;104373;-79
2021/03/16 06:23:36;;;;;;;78.50;57.38;;;;;;;3.32;73.47;99846.41;123254;1105;104864;-80
2021/03/16 06:26:09;;;;;;;78.07;56.60;;;;;;;3.46;73.30;99844.53;123096;1105;104479;-80
2021/03/16 06:28:36;;;;;;;69.58;49.55;;;;;;;3.60;73.32;99849.73;123208;1105;104370;-82
2021/03/16 06:31:03;;;;;;;66.45;45.48;;;;;;;3.69;73.12;99851.41;123140;1105;104277;-80
2021/03/16 06:33:32;;;;;;;61.35;40.50;;;;;;;3.77;73.34;99861.89;123111;1105;104223;-80
2021/03/16 06:36:14;;;;;;;54.88;42.50;;;;;;;3.88;73.20;99861.80;122863;1109;105005;-81
2021/03/16 06:38:55;;;;;;;56.53;41.10;;;;;;;4.04;73.64;99866.09;122820;1112;104453;-85
2021/03/16 06:41:36;;;;;;;55.10;39.60;;;;;;;4.16;73.30;99871.24;123060;1112;104626;-82
2021/03/16 06:44:19;;;;;;;46.60;36.60;;;;;;;4.23;72.88;99871.20;122972;1112;104393;-83
2021/03/16 06:46:56;;;;;;;51.80;35.77;;;;;;;4.31;72.93;99872.86;123008;1110;104303;-82
2021/03/16 06:49:24;;;;;;;55.75;41.92;;;;;;;4.40;72.61;99869.28;123035;1112;104361;-82
2021/03/16 06:51:54;;;;;;;50.85;36.45;;;;;;;4.47;72.90;99873.59;123162;1112;104405;-82
2021/03/16 06:54:23;;;;;;;49.10;36.88;;;;;;;4.57;73.06;99878.77;122935;1112;104521;-84
2021/03/16 06:56:54;;;;;;;51.33;32.40;;;;;;;4.72;72.72;99870.71;122536;1112;104876;-82
2021/03/16 06:59:26;;;;;;;45.75;33.60;;;;;;;4.84;72.64;99867.92;122739;1112;104335;-82
2021/03/16 07:01:53;;;;;;;44.33;33.00;;;;;;;4.96;72.64;99871.33;122682;1112;104415;-82
2021/03/16 07:04:21;;;;;;;48.00;35.57;;;;;;;5.15;72.23;99864.05;122634;1111;104486;-86
2021/03/16 07:06:48;;;;;;;42.20;29.27;;;;;;;5.27;72.03;99868.30;122569;1109;104463;-81
2021/03/16 07:09:16;;;;;;;41.17;27.63;;;;;;;5.46;71.55;99879.48;122605;1111;104303;-81
2021/03/16 07:11:51;;;;;;;35.50;27.33;;;;;;;5.55;71.00;99874.06;123282;1112;104482;-80
2021/03/16 07:14:20;;;;;;;35.75;28.73;;;;;;;5.63;70.57;99876.60;123202;1109;104389;-81
2021/03/16 07:16:48;;;;;;;36.83;29.27;;;;;;;5.71;70.42;99880.00;123418;1105;104296;-86
2021/03/16 07:19:21;;;;;;;43.35;28.75;;;;;;;5.73;69.98;99878.22;123361;1105;104290;-81
2021/03/16 07:21:49;;;;;;;41.70;29.20;;;;;;;5.78;69.75;99884.28;123163;1105;104236;-81
2021/03/16 07:24:17;;;;;;;41.60;31.68;;;;;;;5.80;69.73;99882.50;123039;1105;104482;-80
2021/03/16 07:26:45;;;;;;;50.70;32.55;;;;;;;5.87;69.64;99893.85;123182;1105;104335;-81
2021/03/16 07:29:12;;;;;;;48.13;35.55;;;;;;;5.92;69.11;99894.66;123171;1105;104229;-81
2021/03/16 07:31:58;;;;;;;47.78;34.55;;;;;;;5.93;69.40;99888.48;123064;1105;104147;-83
2021/03/16 07:34:26;;;;;;;54.53;39.50;;;;;;;5.96;69.02;99899.00;123099;1105;104265;-82
2021/03/16 07:36:53;;;;;;;53.33;39.33;;;;;;;5.99;68.88;99892.83;122804;1105;104647;-81
2021/03/16 07:39:22;;;;;;;51.60;38.47;;;;;;;6.05;68.96;99897.13;122789;1105;104337;-89
2021/03/16 07:41:51;;;;;;;52.33;37.03;;;;;;;6.10;68.69;99895.30;122939;1105;104248;-80
2021/03/16 07:44:19;;;;;;;50.63;40.12;;;;;;;6.14;68.30;99896.98;122843;1105;104213;-84
2021/03/16 07:46:51;;;;;;;54.03;40.00;;;;;;;6.12;68.30;99899.66;122776;1105;104973;-81
2021/03/16 07:49:38;;;;;;;58.58;36.23;;;;;;;6.24;68.52;99902.98;122894;1105;104229;-82
2021/03/16 07:52:19;;;;;;;53.33;41.57;;;;;;;6.32;68.24;99906.41;123234;1105;104264;-82
2021/03/16 07:54:48;;;;;;;57.17;40.10;;;;;;;6.35;68.07;99903.70;123190;1105;104935;-81
2021/03/16 07:57:30;;;;;;;57.25;41.18;;;;;;;6.41;67.75;99905.36;123170;1105;105512;-80
2021/03/16 08:00:01;;;;;;;56.55;38.55;;;;;;;6.44;67.51;99900.03;123165;1105;104313;-81
2021/03/16 08:02:31;;;;;;;50.20;37.03;;;;;;;6.59;68.03;99910.33;123194;1105;104398;-81
2021/03/16 08:04:58;;;;;;;60.47;38.93;;;;;;;6.71;67.89;99908.38;123103;1105;104325;-78
2021/03/16 08:07:28;;;;;;;57.57;39.33;;;;;;;6.80;67.64;99909.06;123228;1105;104421;-83
2021/03/16 08:10:10;;;;;;;52.50;39.73;;;;;;;6.96;67.21;99903.48;122850;1109;104466;-83
2021/03/16 08:12:37;;;;;;;56.23;40.03;;;;;;;7.08;66.53;99908.53;123037;1109;104419;-81
2021/03/16 08:15:17;;;;;;;49.27;36.53;;;;;;;7.29;66.52;99908.98;123062;1105;104536;-85
2021/03/16 08:17:57;;;;;;;40.73;31.35;;;;;;;7.44;65.30;99903.38;123130;1105;105127;-82
2021/03/16 08:20:25;;;;;;;44.50;31.12;;;;;;;7.53;65.12;99904.94;123117;1105;104219;-82
2021/03/16 08:23:06;;;;;;;42.43;31.10;;;;;;;7.62;63.52;99909.17;123086;1106;104577;-84
2021/03/16 08:25:33;;;;;;;37.35;29.77;;;;;;;7.74;63.89;99906.24;123153;1105;104412;-81
2021/03/16 08:28:06;;;;;;;41.40;30.50;;;;;;;7.85;63.80;99903.34;123076;1105;104312;-81
2021/03/16 08:30:38;;;;;;;41.23;30.10;;;;;;;7.98;63.14;99911.89;123233;1105;104501;-82
2021/03/16 08:33:14;;;;;;;37.57;28.53;;;;;;;8.12;62.49;99903.63;123135;1105;104293;-82
2021/03/16 08:35:53;;;;;;;40.50;27.42;;;;;;;8.31;62.36;99911.99;123223;1104;104380;-82
2021/03/16 08:38:30;;;;;;;39.63;27.67;;;;;;;8.43;61.70;99901.06;123181;1106;104360;-87
2021/03/16 08:41:15;;;;;;;40.63;30.47;;;;;;;8.70;61.79;99909.24;123366;1105;104380;-80
2021/03/16 08:43:47;;;;;;;36.33;26.33;;;;;;;8.89;60.73;99906.98;123099;1106;104558;-82
2021/03/16 08:46:13;;;;;;;25.80;21.62;;;;;;;8.93;59.11;99910.41;123108;1106;104393;-84
2021/03/16 08:48:54;;;;;;;36.30;26.05;;;;;;;9.03;59.54;99907.45;122823;1109;104322;-81
2021/03/16 08:51:25;;;;;;;34.63;26.00;;;;;;;9.15;59.56;99913.34;123002;1106;104345;-83
2021/03/16 08:53:53;;;;;;;41.20;30.55;;;;;;;9.17;58.37;99908.84;123037;1105;104922;-80
2021/03/16 08:56:24;;;;;;;45.10;30.77;;;;;;;9.23;59.45;99918.45;123167;1105;104281;-83
2021/03/16 08:59:05;;;;;;;34.60;25.77;;;;;;;9.32;58.99;99916.38;123035;1106;104418;-86
2021/03/16 09:01:51;;;;;;;36.35;26.23;;;;;;;9.47;57.71;99911.55;123232;1105;104747;-80
2021/03/16 09:04:20;;;;;;;31.07;26.53;;;;;;;9.93;56.55;99918.12;123346;1105;104178;-79
2021/03/16 09:06:53;;;;;;;41.30;28.40;;;;;;;11.69;52.80;99917.34;123135;1105;104342;-81
2021/03/16 09:09:28;;;;;;;31.73;25.57;;;;;;;13.44;51.04;99918.07;123069;1105;104341;-88
2021/03/16 09:11:55;;;;;;;30.07;24.87;;;;;;;15.12;45.75;99911.63;123102;1105;104466;-83
2021/03/16 09:14:22;;;;;;;28.23;22.23;;;;;;;16.30;42.52;99914.12;123115;1105;104294;-81
2021/03/16 09:16:53;;;;;;;27.02;22.10;;;;;;;17.47;40.66;99911.59;123087;1105;104249;-81
2021/03/16 09:19:32;;;;;;;30.67;21.20;;;;;;;18.39;38.90;99903.91;123064;1105;104223;-83
2021/03/16 09:22:01;;;;;;;28.62;21.68;;;;;;;19.36;36.74;99905.38;123012;1106;104619;-81
2021/03/16 09:24:32;;;;;;;26.97;21.45;;;;;;;20.07;34.64;99902.12;123056;1105;104207;-87
2021/03/16 09:27:01;;;;;;;22.03;19.00;;;;;;;20.51;34.24;99907.88;122990;1105;104370;-81
2021/03/16 09:29:33;;;;;;;22.73;20.00;;;;;;;20.94;32.17;99917.28;122920;1105;104383;-85
2021/03/16 09:32:14;;;;;;;25.17;19.50;;;;;;;20.19;32.05;99905.75;122866;1105;104369;-81
2021/03/16 09:34:45;;;;;;;21.03;17.63;;;;;;;20.45;31.50;99903.80;123308;1105;104415;-87
2021/03/16 09:37:18;;;;;;;22.40;18.57;;;;;;;20.18;32.26;99910.31;122982;1106;104358;-83
2021/03/16 09:39:54;;;;;;;26.48;19.10;;;;;;;19.41;32.37;99917.67;122979;1105;104326;-85
2021/03/16 09:42:31;;;;;;;23.20;17.87;;;;;;;18.93;32.64;99916.49;123045;1105;104284;-86
2021/03/16 09:44:59;;;;;;;24.70;18.92;;;;;;;18.41;33.53;99922.69;123106;1105;104460;-82
2021/03/16 09:47:37;;;;;;;23.63;18.57;;;;;;;18.41;33.80;99918.17;123037;1105;104281;-81
2021/03/16 09:50:20;;;;;;;24.77;19.73;;;;;;;17.79;34.05;99921.28;123010;1105;104778;-82
2021/03/16 09:52:48;;;;;;;25.65;19.62;;;;;;;17.54;34.10;99923.72;123084;1105;104306;-81
2021/03/16 09:55:17;;;;;;;20.57;17.02;;;;;;;17.46;34.11;99923.34;123074;1105;104290;-82
2021/03/16 09:57:47;;;;;;;21.00;17.67;;;;;;;16.40;34.05;99917.13;122780;1105;104226;-82
2021/03/16 10:00:18;;;;;;;23.77;18.35;;;;;;;15.64;36.73;99920.50;122933;1105;104316;-84
2021/03/16 10:02:45;;;;;;;27.60;17.47;;;;;;;15.04;37.24;99928.12;123084;1105;104389;-81
2021/03/16 10:05:14;;;;;;;24.47;17.53;;;;;;;14.66;38.92;99935.46;123146;1105;104948;-82
2021/03/16 10:07:52;;;;;;;22.63;17.30;;;;;;;14.07;39.21;99934.78;123024;1105;104412;-80
2021/03/16 10:10:21;;;;;;;24.60;20.07;;;;;;;13.54;39.75;99932.77;123037;1105;104711;-82
2021/03/16 10:12:59;;;;;;;24.63;18.53;;;;;;;12.99;40.33;99945.91;123157;1105;104319;-82
2021/03/16 10:15:30;;;;;;;24.27;17.80;;;;;;;12.60;41.40;99944.02;123168;1105;104979;-83
2021/03/16 10:17:59;;;;;;;23.87;18.43;;;;;;;12.38;42.21;99939.55;123054;1105;104344;-81
2021/03/16 10:20:30;;;;;;;22.90;16.73;;;;;;;12.13;42.70;99937.89;123298;1105;104262;-82
2021/03/16 10:23:11;;;;;;;23.63;18.80;;;;;;;11.92;43.36;99941.39;123258;1105;104341;-81
2021/03/16 10:25:58;;;;;;;23.63;18.93;;;;;;;11.58;44.53;99945.34;123142;1105;104382;-81
2021/03/16 10:28:45;;;;;;;28.75;17.73;;;;;;;11.36;44.53;99941.68;123095;1104;104248;-85
2021/03/16 10:31:24;;;;;;;19.32;16.05;;;;;;;11.15;44.23;99947.80;123033;1105;104900;-81
2021/03/16 10:33:54;;;;;;;30.87;20.03;;;;;;;10.76;46.38;99946.48;123018;1105;104390;-81
2021/03/16 10:36:22;;;;;;;29.02;20.15;;;;;;;10.62;46.99;99936.32;123221;1105;104214;-80
2021/03/16 10:38:50;;;;;;;28.83;20.60;;;;;;;10.48;48.12;99944.75;123073;1105;104174;-80
2021/03/16 10:41:19;;;;;;;24.10;19.40;;;;;;;10.37;48.33;99939.80;123165;1105;104253;-81
2021/03/16 10:43:48;;;;;;;28.50;22.03;;;;;;;10.28;48.61;99940.06;123221;1105;104492;-83
2021/03/16 10:46:14;;;;;;;28.30;21.87;;;;;;;10.12;48.14;99942.34;123172;1105;104275;-81
2021/03/16 10:48:41;;;;;;;28.80;20.50;;;;;;;10.06;49.31;99942.52;122829;1105;104270;-81
2021/03/16 10:51:08;;;;;;;29.73;22.30;;;;;;;10.08;48.93;99937.19;122786;1105;104313;-87
2021/03/16 10:53:35;;;;;;;25.40;19.57;;;;;;;10.21;48.71;99934.06;122894;1105;104258;-85
2021/03/16 10:56:05;;;;;;;24.85;20.30;;;;;;;10.21;48.43;99938.53;122898;1105;104370;-81
2021/03/16 10:58:33;;;;;;;25.62;18.90;;;;;;;10.20;48.23;99942.96;122783;1105;104441;-89
2021/03/16 11:01:00;;;;;;;28.60;20.60;;;;;;;10.25;48.85;99941.94;122781;1105;104348;-81
2021/03/16 11:03:33;;;;;;;25.37;20.15;;;;;;;10.20;48.68;99939.44;122816;1105;104520;-81
2021/03/16 11:06:01;;;;;;;24.47;18.25;;;;;;;10.28;48.81;99941.86;122970;1105;104242;-83
2021/03/16 11:08:30;;;;;;;24.97;20.20;;;;;;;10.44;48.41;99936.94;122825;1105;104368;-81
2021/03/16 11:10:56;;;;;;;23.98;17.60;;;;;;;10.49;47.64;99933.19;122723;1105;104402;-82
2021/03/16 11:13:22;;;;;;;21.33;19.00;;;;;;;10.47;47.62;99931.50;122614;1105;105152;-82
2021/03/16 11:15:49;;;;;;;24.67;18.35;;;;;;;10.51;46.78;99930.47;122629;1105;104383;-80
2021/03/16 11:18:17;;;;;;;29.00;19.80;;;;;;;10.54;47.53;99933.02;122586;1105;104419;-80
2021/03/16 11:20:45;;;;;;;20.50;15.63;;;;;;;10.63;47.41;99934.52;123404;1105;104280;-81
2021/03/16 11:23:13;;;;;;;26.50;18.20;;;;;;;10.69;46.95;99931.66;123043;1105;104232;-80